Time;durP1;ratioP1;P1;durP2;ratioP2;P2;SDS_P1;SDS_P2;PMS_P1;PMS_P2;Temp;Humidity;BMP_temperature;BMP_pressure;BME280_temperature;BME280_humidity;BME280_pressure;Samples;Min_cycle;Max_cycle;Signal;HPM_P1;HPM_P2
2023/10/20 00:01:42;;;;;;;11.05;4.47;;;13.90;99.90;;;;;;4982764;28;20046;-75
2023/10/20 00:04:09;;;;;;;12.10;5.43;;;14.00;99.90;;;;;;4979395;28;20383;-77
2023/10/20 00:06:39;;;;;;;13.45;5.20;;;13.90;99.90;;;;;;4987682;28;20050;-77
2023/10/20 00:09:06;;;;;;;11.90;4.70;;;14.00;99.90;;;;;;4980974;28;22436;-75
2023/10/20 00:11:33;;;;;;;12.65;4.85;;;14.00;99.90;;;;;;4987114;28;20046;-76
2023/10/20 00:14:00;;;;;;;12.57;5.43;;;14.00;99.90;;;;;;4978530;28;20060;-74
2023/10/20 00:16:28;;;;;;;13.68;5.70;;;14.20;99.90;;;;;;4964620;28;20124;-77
2023/10/20 00:18:56;;;;;;;12.98;5.43;;;14.30;99.90;;;;;;4974434;28;20078;-77
2023/10/20 00:21:24;;;;;;;10.43;5.70;;;14.30;99.90;;;;;;4978789;28;20073;-78
2023/10/20 00:23:51;;;;;;;11.82;5.13;;;14.30;99.90;;;;;;4978038;28;20418;-76
2023/10/20 00:26:19;;;;;;;12.05;5.50;;;14.30;99.90;;;;;;4967248;28;20080;-78
2023/10/20 00:28:49;;;;;;;11.77;5.40;;;14.40;99.90;;;;;;4984729;28;20042;-76
2023/10/20 00:31:17;;;;;;;11.85;5.28;;;14.40;99.90;;;;;;4982829;28;20168;-77
2023/10/20 00:33:45;;;;;;;11.95;5.18;;;14.40;99.90;;;;;;4973585;28;20062;-77
2023/10/20 00:36:13;;;;;;;10.02;5.35;;;14.50;99.90;;;;;;4984656;28;20494;-77
2023/10/20 00:38:40;;;;;;;10.68;4.72;;;14.50;99.90;;;;;;4987678;28;20077;-77
2023/10/20 00:41:08;;;;;;;9.20;5.10;;;14.50;99.90;;;;;;4969906;28;20047;-76
2023/10/20 00:43:37;;;;;;;11.38;5.25;;;14.50;99.90;;;;;;4974061;28;20097;-76
2023/10/20 00:46:06;;;;;;;10.57;4.35;;;14.60;99.90;;;;;;4986374;28;20134;-79
2023/10/20 00:48:37;;;;;;;11.07;5.00;;;14.50;99.90;;;;;;4979164;28;20125;-77
2023/10/20 00:51:06;;;;;;;12.55;4.05;;;14.60;99.90;;;;;;4976741;28;20058;-77
2023/10/20 00:53:35;;;;;;;12.55;5.28;;;14.50;99.90;;;;;;4979588;28;20058;-77
2023/10/20 00:56:06;;;;;;;16.55;5.40;;;14.60;99.90;;;;;;4964700;28;20174;-77
2023/10/20 00:58:33;;;;;;;13.23;4.80;;;14.60;99.90;;;;;;4996051;28;20461;-77
2023/10/20 01:01:03;;;;;;;9.73;5.53;;;14.50;99.90;;;;;;4975242;28;20945;-75
2023/10/20 01:03:35;;;;;;;12.50;5.30;;;14.50;99.90;;;;;;4968366;28;20918;-77
2023/10/20 01:06:04;;;;;;;11.93;4.90;;;14.60;99.90;;;;;;4965480;28;20049;-76
2023/10/20 01:08:31;;;;;;;13.68;5.53;;;14.70;99.90;;;;;;4985568;28;20134;-77
2023/10/20 01:10:58;;;;;;;11.52;4.68;;;14.80;99.90;;;;;;4985711;28;20136;-76
2023/10/20 01:13:26;;;;;;;9.32;4.65;;;14.70;99.90;;;;;;4988892;28;21268;-77
2023/10/20 01:15:54;;;;;;;14.65;5.55;;;14.60;99.90;;;;;;4996643;28;20494;-77
2023/10/20 01:18:21;;;;;;;12.88;4.68;;;14.60;99.90;;;;;;4991636;28;20053;-77
2023/10/20 01:20:49;;;;;;;11.27;4.38;;;14.70;99.90;;;;;;4979506;28;20461;-79
2023/10/20 01:23:16;;;;;;;8.57;4.15;;;14.70;99.90;;;;;;4976484;28;20495;-78
2023/10/20 01:25:43;;;;;;;9.82;4.68;;;14.70;99.90;;;;;;4990489;28;20065;-78
2023/10/20 01:28:10;;;;;;;6.88;3.38;;;14.80;99.90;;;;;;4978799;28;20038;-78
2023/10/20 01:30:38;;;;;;;11.82;4.43;;;14.80;99.90;;;;;;4965879;28;20458;-77
2023/10/20 01:33:06;;;;;;;11.23;5.13;;;14.70;99.90;;;;;;4975093;28;20065;-78
2023/10/20 01:35:34;;;;;;;10.30;4.55;;;14.80;99.90;;;;;;5001917;28;20049;-77
2023/10/20 01:38:03;;;;;;;13.73;5.60;;;14.80;99.90;;;;;;4974571;28;20132;-76
2023/10/20 01:40:31;;;;;;;9.55;4.13;;;14.80;99.90;;;;;;4988992;28;20494;-77
2023/10/20 01:42:58;;;;;;;9.77;4.95;;;14.80;99.90;;;;;;4997215;28;20125;-77
2023/10/20 01:45:26;;;;;;;11.65;4.35;;;14.80;99.90;;;;;;4984607;28;20045;-77
2023/10/20 01:47:54;;;;;;;10.05;4.88;;;14.80;99.90;;;;;;5003320;28;22552;-78
2023/10/20 01:50:23;;;;;;;12.70;4.03;;;14.80;99.90;;;;;;4974112;28;20049;-78
2023/10/20 01:52:50;;;;;;;10.60;4.05;;;14.90;99.90;;;;;;4970666;28;20053;-77
2023/10/20 01:55:17;;;;;;;11.98;5.05;;;14.90;99.90;;;;;;4996627;28;20520;-79
2023/10/20 01:57:45;;;;;;;12.27;5.10;;;14.90;99.90;;;;;;4985095;28;20120;-79
2023/10/20 02:00:16;;;;;;;8.38;4.25;;;14.90;99.90;;;;;;4988212;28;20042;-79
2023/10/20 02:02:44;;;;;;;7.40;4.32;;;14.90;99.90;;;;;;4969323;28;20038;-78
2023/10/20 02:05:12;;;;;;;9.90;4.18;;;14.90;99.90;;;;;;4968046;28;24158;-78
2023/10/20 02:07:39;;;;;;;8.77;4.25;;;14.90;99.90;;;;;;4983701;28;20569;-78
2023/10/20 02:10:07;;;;;;;14.07;5.05;;;14.80;99.90;;;;;;5005032;28;20490;-79
2023/10/20 02:12:35;;;;;;;8.40;4.18;;;14.90;99.90;;;;;;4968611;28;20183;-77
2023/10/20 02:15:04;;;;;;;8.68;3.50;;;15.00;99.90;;;;;;4981836;28;20142;-77
2023/10/20 02:17:31;;;;;;;9.98;4.15;;;15.00;99.90;;;;;;4968536;28;20050;-78
2023/10/20 02:19:59;;;;;;;8.70;4.28;;;15.00;99.90;;;;;;4998606;28;20046;-78
2023/10/20 02:22:26;;;;;;;10.05;4.85;;;14.90;99.90;;;;;;4988611;28;22401;-79
2023/10/20 02:24:54;;;;;;;9.27;3.88;;;15.00;99.90;;;;;;4991319;28;20970;-79
2023/10/20 02:27:21;;;;;;;13.38;4.00;;;15.00;99.90;;;;;;5000891;28;20145;-78
2023/10/20 02:29:48;;;;;;;10.45;4.00;;;15.10;99.90;;;;;;4984108;28;20052;-80
2023/10/20 02:32:15;;;;;;;14.05;4.65;;;15.00;99.90;;;;;;4982961;28;20093;-78
2023/10/20 02:34:42;;;;;;;10.57;4.50;;;15.10;99.90;;;;;;4991397;28;20049;-78
2023/10/20 02:37:12;;;;;;;13.40;5.53;;;15.00;99.90;;;;;;4991288;28;20521;-77
2023/10/20 02:39:39;;;;;;;10.57;4.43;;;15.10;99.90;;;;;;4986800;28;20078;-78
2023/10/20 02:42:06;;;;;;;8.43;3.92;;;15.10;99.90;;;;;;4964633;28;20072;-79
2023/10/20 02:44:34;;;;;;;14.35;5.30;;;15.10;99.90;;;;;;4993144;28;20053;-78
2023/10/20 02:47:03;;;;;;;13.45;4.35;;;15.10;99.90;;;;;;4980169;28;20536;-78
2023/10/20 02:49:30;;;;;;;13.52;5.10;;;15.20;99.90;;;;;;4978393;28;20046;-77
2023/10/20 02:51:57;;;;;;;15.85;4.65;;;15.10;99.90;;;;;;4980753;28;20121;-78
2023/10/20 02:54:25;;;;;;;12.95;4.70;;;15.10;99.90;;;;;;4983878;28;20140;-78
2023/10/20 02:56:56;;;;;;;13.05;4.93;;;15.20;99.90;;;;;;4988091;28;20054;-79
2023/10/20 02:59:24;;;;;;;13.68;4.20;;;15.10;99.90;;;;;;4974976;28;22001;-78
2023/10/20 03:01:54;;;;;;;11.23;5.15;;;15.10;99.90;;;;;;4976901;28;22718;-77
2023/10/20 03:04:21;;;;;;;10.38;4.55;;;15.10;99.90;;;;;;4993305;28;20046;-79
2023/10/20 03:06:48;;;;;;;9.82;5.03;;;15.00;99.90;;;;;;4979136;28;20050;-78
2023/10/20 03:09:15;;;;;;;12.05;5.10;;;15.10;99.90;;;;;;4961484;28;20038;-79
2023/10/20 03:11:43;;;;;;;11.95;5.38;;;15.10;99.90;;;;;;4981456;28;22659;-78
2023/10/20 03:14:11;;;;;;;10.07;4.88;;;15.00;99.90;;;;;;4980040;28;20057;-78
2023/10/20 03:16:42;;;;;;;17.20;5.65;;;15.00;99.90;;;;;;4982806;28;20497;-78
2023/10/20 03:19:12;;;;;;;10.73;5.20;;;15.00;99.90;;;;;;4979538;28;20685;-78
2023/10/20 03:21:40;;;;;;;10.73;5.43;;;15.00;99.90;;;;;;4987084;28;20050;-77
2023/10/20 03:24:07;;;;;;;12.93;4.72;;;15.10;99.90;;;;;;4981371;28;20256;-77
2023/10/20 03:26:35;;;;;;;11.13;5.65;;;15.10;99.90;;;;;;4988736;28;20120;-77
2023/10/20 03:29:03;;;;;;;11.40;4.55;;;15.00;99.90;;;;;;4982909;28;22099;-79
2023/10/20 03:31:31;;;;;;;13.20;6.10;;;15.00;99.90;;;;;;4976460;28;20069;-78
2023/10/20 03:33:59;;;;;;;12.85;4.90;;;15.10;99.90;;;;;;4978289;28;20070;-77
2023/10/20 03:36:27;;;;;;;16.15;6.32;;;15.00;99.90;;;;;;4976882;28;20085;-77
2023/10/20 03:38:56;;;;;;;13.07;5.57;;;15.00;99.90;;;;;;4995446;28;20085;-79
2023/10/20 03:41:25;;;;;;;15.70;6.47;;;15.10;99.90;;;;;;4985204;28;20501;-77
2023/10/20 03:43:53;;;;;;;13.75;5.10;;;15.20;99.90;;;;;;4998422;28;20125;-80
2023/10/20 03:46:20;;;;;;;14.10;5.72;;;15.10;99.90;;;;;;4987442;28;20044;-78
2023/10/20 03:48:47;;;;;;;15.52;5.72;;;15.20;99.90;;;;;;4966256;28;20050;-78
2023/10/20 03:51:17;;;;;;;11.63;5.97;;;15.10;99.90;;;;;;4986535;28;20046;-75
2023/10/20 03:53:50;;;;;;;13.07;5.80;;;15.10;99.90;;;;;;4981840;28;20481;-77
2023/10/20 03:56:22;;;;;;;10.45;5.03;;;15.10;99.90;;;;;;4980624;28;20124;-79
2023/10/20 03:58:49;;;;;;;11.80;5.15;;;15.10;99.90;;;;;;4978930;28;20054;-80
2023/10/20 04:01:17;;;;;;;16.17;6.70;;;15.10;99.90;;;;;;4977016;28;20061;-79
2023/10/20 04:03:49;;;;;;;14.13;5.15;;;15.10;99.90;;;;;;4977237;28;20054;-78
2023/10/20 04:06:17;;;;;;;12.43;6.40;;;15.20;99.90;;;;;;4978965;28;20046;-78
2023/10/20 04:08:44;;;;;;;12.10;5.32;;;15.20;99.90;;;;;;4977530;28;20049;-77
2023/10/20 04:11:12;;;;;;;12.43;5.13;;;15.20;99.90;;;;;;4962310;28;20078;-78
2023/10/20 04:13:40;;;;;;;12.95;6.15;;;15.10;99.90;;;;;;4982581;28;20054;-79
2023/10/20 04:16:14;;;;;;;10.85;5.35;;;15.10;99.90;;;;;;4981736;28;20054;-81
2023/10/20 04:18:42;;;;;;;10.75;5.68;;;15.10;99.90;;;;;;4968559;28;20051;-78
2023/10/20 04:21:11;;;;;;;8.93;4.85;;;15.20;99.90;;;;;;4977868;28;20150;-78
2023/10/20 04:23:39;;;;;;;11.70;6.00;;;15.20;99.90;;;;;;4979916;28;20252;-80
2023/10/20 04:26:23;;;;;;;13.43;4.90;;;15.20;99.90;;;;;;4961694;28;20101;-77
2023/10/20 04:43:37;;;;;;;10.75;5.35;;;15.20;99.90;;;;;;4994303;28;20057;-77
2023/10/20 04:54:45;;;;;;;12.88;5.47;;;15.30;99.90;;;;;;4938887;28;20433;-78
2023/10/20 05:00:31;;;;;;;10.82;4.93;;;15.30;99.90;;;;;;4954328;28;20043;-78
2023/10/20 05:02:46;;;;;;;14.65;5.28;;;15.40;99.90;;;;;;4957063;28;22129;-75
2023/10/20 05:08:03;;;;;;;12.63;6.28;;;15.50;99.90;;;;;;4942898;28;20316;-77
2023/10/20 05:10:32;;;;;;;12.98;5.68;;;15.50;99.90;;;;;;4957687;28;20722;-77
2023/10/20 05:12:59;;;;;;;14.95;4.97;;;15.50;99.90;;;;;;4936458;28;20055;-79
2023/10/20 05:15:31;;;;;;;15.60;5.05;;;15.50;99.90;;;;;;4959277;28;20054;-79
2023/10/20 05:17:58;;;;;;;11.68;4.57;;;15.60;99.90;;;;;;4954353;28;20058;-79
2023/10/20 05:20:26;;;;;;;11.98;4.95;;;15.50;99.90;;;;;;4937284;28;20058;-79
2023/10/20 05:22:53;;;;;;;12.95;4.43;;;15.60;99.90;;;;;;4942179;28;20053;-76
2023/10/20 05:25:20;;;;;;;12.90;5.25;;;15.60;99.90;;;;;;4953752;28;20710;-76
2023/10/20 05:27:47;;;;;;;8.98;4.93;;;15.60;99.90;;;;;;4941445;28;20085;-77
2023/10/20 05:30:14;;;;;;;13.60;5.15;;;15.60;99.90;;;;;;4941661;28;20541;-77
2023/10/20 05:32:41;;;;;;;12.10;4.53;;;15.60;99.90;;;;;;4973202;28;20101;-76
2023/10/20 05:35:09;;;;;;;11.40;4.97;;;15.70;99.90;;;;;;4951397;28;20062;-82
2023/10/20 05:37:37;;;;;;;11.43;4.50;;;15.70;99.90;;;;;;4940898;28;20062;-79
2023/10/20 05:40:04;;;;;;;9.27;4.50;;;15.70;99.90;;;;;;4923799;28;20427;-79
2023/10/20 05:42:31;;;;;;;13.18;4.88;;;15.80;99.90;;;;;;4934160;28;20196;-76
2023/10/20 05:45:02;;;;;;;9.80;4.60;;;15.80;99.90;;;;;;4932760;28;20417;-78
2023/10/20 05:47:30;;;;;;;12.07;4.80;;;15.80;99.90;;;;;;4938291;28;20493;-78
2023/10/20 05:49:59;;;;;;;7.43;4.50;;;15.90;99.90;;;;;;4931646;28;20057;-77
2023/10/20 05:52:26;;;;;;;9.82;4.30;;;15.90;99.90;;;;;;4941401;28;20054;-78
2023/10/20 05:54:55;;;;;;;11.98;5.03;;;15.90;99.90;;;;;;4934823;28;20046;-79
2023/10/20 05:57:22;;;;;;;8.05;4.38;;;16.00;99.90;;;;;;4942951;28;20058;-79
2023/10/20 05:59:50;;;;;;;12.52;4.15;;;16.00;99.90;;;;;;4958314;28;20051;-79
2023/10/20 06:02:18;;;;;;;13.10;4.72;;;16.00;99.90;;;;;;4940178;28;20038;-76
2023/10/20 06:04:45;;;;;;;9.13;4.30;;;16.10;99.90;;;;;;4956897;28;20061;-80
2023/10/20 06:07:12;;;;;;;9.25;4.57;;;16.10;99.90;;;;;;4941996;28;20929;-79
2023/10/20 06:09:39;;;;;;;13.32;4.20;;;16.00;99.90;;;;;;4944069;28;20042;-77
2023/10/20 06:12:07;;;;;;;10.23;5.38;;;16.10;99.90;;;;;;4942388;28;20046;-76
2023/10/20 06:14:36;;;;;;;16.05;5.10;;;16.00;99.90;;;;;;4937497;28;20078;-76
2023/10/20 06:17:04;;;;;;;13.18;4.78;;;16.00;99.90;;;;;;4977667;28;20722;-82
2023/10/20 06:19:31;;;;;;;10.20;4.40;;;16.10;99.90;;;;;;4936529;28;20172;-79
2023/10/20 06:22:00;;;;;;;10.43;4.45;;;16.20;99.90;;;;;;4961419;28;20058;-77
2023/10/20 06:24:28;;;;;;;16.50;5.20;;;16.20;99.90;;;;;;4939760;28;20046;-79
2023/10/20 06:27:02;;;;;;;11.85;4.78;;;16.30;99.90;;;;;;4935262;28;20052;-78
2023/10/20 06:32:19;;;;;;;15.32;4.20;;;16.40;99.90;;;;;;4949799;28;20760;-77
2023/10/20 06:34:48;;;;;;;8.18;4.10;;;16.40;99.90;;;;;;4950693;28;20046;-79
2023/10/20 06:37:41;;;;;;;11.43;4.68;;;16.50;99.90;;;;;;4939991;28;20769;-80
2023/10/20 06:40:06;;;;;;;12.07;4.32;;;16.50;99.90;;;;;;4953453;28;20935;-78
2023/10/20 06:42:33;;;;;;;8.45;3.70;;;16.50;99.90;;;;;;4952262;28;20043;-80
2023/10/20 06:45:04;;;;;;;13.30;4.90;;;16.50;99.90;;;;;;4960617;28;20059;-79
2023/10/20 06:47:32;;;;;;;12.48;3.67;;;16.40;99.90;;;;;;4956925;28;20287;-79
2023/10/20 06:49:59;;;;;;;12.50;3.85;;;16.40;99.90;;;;;;4941747;28;22177;-80
2023/10/20 06:52:27;;;;;;;9.88;3.70;;;16.40;99.90;;;;;;4955610;28;20508;-78
2023/10/20 06:54:56;;;;;;;9.95;4.65;;;16.40;99.90;;;;;;4939912;28;20073;-79
2023/10/20 06:57:43;;;;;;;9.73;3.63;;;16.40;99.90;;;;;;4929932;28;20155;-80
2023/10/20 07:00:17;;;;;;;10.23;4.15;;;16.40;99.90;;;;;;4954655;28;20047;-78
2023/10/20 07:02:45;;;;;;;9.15;3.58;;;16.40;99.90;;;;;;4951518;28;20061;-78
2023/10/20 07:05:13;;;;;;;11.43;4.35;;;16.40;99.90;;;;;;4942178;28;22235;-79
2023/10/20 07:07:40;;;;;;;9.30;3.40;;;16.40;99.90;;;;;;4936946;28;20053;-78
2023/10/20 07:10:10;;;;;;;12.98;4.35;;;16.40;99.90;;;;;;4943840;28;20201;-78
2023/10/20 07:12:38;;;;;;;9.60;3.58;;;16.40;99.90;;;;;;4936514;28;20058;-80
2023/10/20 07:15:05;;;;;;;10.95;4.15;;;16.40;99.90;;;;;;4935803;28;22195;-77
2023/10/20 07:17:33;;;;;;;8.13;3.78;;;16.40;99.90;;;;;;4953692;28;20070;-79
2023/10/20 07:20:04;;;;;;;14.90;4.38;;;16.40;99.90;;;;;;4943791;28;22259;-78
2023/10/20 07:22:32;;;;;;;12.25;3.80;;;16.50;99.90;;;;;;4957044;28;22255;-77
2023/10/20 07:24:59;;;;;;;14.77;4.55;;;16.70;99.90;;;;;;4961417;28;20104;-79
2023/10/20 07:27:26;;;;;;;7.78;3.80;;;16.80;99.90;;;;;;4928173;28;20055;-80
2023/10/20 07:29:53;;;;;;;9.98;3.85;;;16.80;99.90;;;;;;4923312;28;20441;-79
2023/10/20 07:32:21;;;;;;;10.27;3.83;;;16.90;99.90;;;;;;4955693;28;20056;-78
2023/10/20 07:34:48;;;;;;;12.48;4.10;;;16.90;99.90;;;;;;4947826;28;20042;-77
2023/10/20 07:37:18;;;;;;;11.95;3.85;;;17.10;99.90;;;;;;4959530;28;20054;-79
2023/10/20 07:39:46;;;;;;;10.23;3.58;;;17.10;99.90;;;;;;4961382;28;20173;-78
2023/10/20 07:42:16;;;;;;;7.85;3.63;;;17.10;99.90;;;;;;4944866;28;20085;-82
2023/10/20 07:44:43;;;;;;;10.70;4.03;;;17.10;99.90;;;;;;4943461;28;20924;-79
2023/10/20 07:47:13;;;;;;;10.55;4.20;;;17.10;99.90;;;;;;4951602;28;20047;-80
2023/10/20 07:49:41;;;;;;;11.27;3.25;;;17.20;99.90;;;;;;4946291;28;20062;-80
2023/10/20 07:52:08;;;;;;;12.13;4.35;;;17.20;99.90;;;;;;4961807;28;20080;-80
2023/10/20 07:54:35;;;;;;;10.07;3.40;;;17.40;99.90;;;;;;4972114;28;20055;-77
2023/10/20 07:57:03;;;;;;;17.02;4.88;;;17.30;99.90;;;;;;4947790;28;20051;-77
2023/10/20 07:59:30;;;;;;;9.30;3.55;;;17.40;99.90;;;;;;4943362;28;20064;-78
2023/10/20 08:01:58;;;;;;;11.38;4.50;;;17.50;99.90;;;;;;4940528;28;20149;-78
2023/10/20 08:04:26;;;;;;;11.52;4.00;;;17.50;99.90;;;;;;4947996;28;20058;-78
2023/10/20 08:06:55;;;;;;;10.73;4.13;;;17.50;99.90;;;;;;4978397;28;20120;-79
2023/10/20 08:09:22;;;;;;;11.73;3.72;;;17.60;99.90;;;;;;4937442;28;22112;-78
2023/10/20 08:11:50;;;;;;;10.27;3.58;;;17.50;99.90;;;;;;4955517;28;20050;-79
2023/10/20 08:14:20;;;;;;;12.73;3.30;;;17.60;99.90;;;;;;4944799;28;20125;-81
2023/10/20 08:16:49;;;;;;;9.23;3.65;;;17.50;99.90;;;;;;4963254;28;20509;-77
2023/10/20 08:19:16;;;;;;;11.70;3.85;;;17.50;99.90;;;;;;4961201;28;20050;-76
2023/10/20 08:21:43;;;;;;;8.95;3.47;;;17.60;99.90;;;;;;4935660;28;20165;-78
2023/10/20 08:24:10;;;;;;;15.50;3.08;;;17.60;99.90;;;;;;4962100;28;20056;-77
2023/10/20 08:26:39;;;;;;;9.23;3.15;;;17.70;99.90;;;;;;4938309;28;20729;-78
2023/10/20 08:29:09;;;;;;;10.27;3.33;;;17.70;99.90;;;;;;4937536;28;20092;-77
2023/10/20 08:31:37;;;;;;;7.88;3.17;;;17.80;99.90;;;;;;4953948;28;20046;-78
2023/10/20 08:34:05;;;;;;;13.93;4.03;;;17.90;99.90;;;;;;4937450;28;20058;-80
2023/10/20 08:36:32;;;;;;;11.18;3.15;;;18.00;99.90;;;;;;4956458;28;20058;-76
2023/10/20 08:39:01;;;;;;;12.77;3.55;;;18.00;99.90;;;;;;4943753;28;20120;-76
2023/10/20 08:41:29;;;;;;;9.23;3.72;;;18.00;99.90;;;;;;4943719;28;20101;-77
2023/10/20 08:43:58;;;;;;;7.70;3.33;;;18.00;99.90;;;;;;4945097;28;20050;-79
2023/10/20 08:46:27;;;;;;;10.57;2.97;;;18.00;99.90;;;;;;4945250;28;20054;-79
2023/10/20 08:48:55;;;;;;;14.18;3.25;;;18.00;99.90;;;;;;4947983;28;20042;-78
2023/10/20 08:51:23;;;;;;;13.48;4.53;;;18.10;99.90;;;;;;4955162;28;20511;-80
2023/10/20 08:53:50;;;;;;;11.75;3.80;;;18.10;99.90;;;;;;4966554;28;20116;-79
2023/10/20 08:56:18;;;;;;;9.95;3.10;;;18.20;99.90;;;;;;4942413;28;20441;-79
2023/10/20 08:58:46;;;;;;;11.73;3.60;;;18.20;99.90;;;;;;4928077;28;20315;-78
2023/10/20 09:01:15;;;;;;;9.07;3.22;;;18.20;99.90;;;;;;4941875;28;20155;-78
2023/10/20 09:03:43;;;;;;;7.20;2.83;;;18.20;99.90;;;;;;4934855;28;20407;-78
2023/10/20 09:06:14;;;;;;;9.07;3.40;;;18.20;99.90;;;;;;4952821;28;20038;-79
2023/10/20 09:08:43;;;;;;;10.63;3.53;;;18.30;99.90;;;;;;4935419;28;20092;-78
2023/10/20 09:11:11;;;;;;;10.13;2.38;;;18.40;99.90;;;;;;4960460;28;20042;-77
2023/10/20 09:13:40;;;;;;;5.97;2.97;;;18.50;99.90;;;;;;4940226;28;20182;-78
2023/10/20 09:16:09;;;;;;;10.68;4.18;;;18.50;99.90;;;;;;4952989;28;20183;-77
2023/10/20 09:18:48;;;;;;;6.53;3.35;;;18.40;99.90;;;;;;4955820;28;20046;-77
2023/10/20 09:21:18;;;;;;;9.02;3.42;;;18.50;99.90;;;;;;4955902;28;20047;-80
2023/10/20 09:24:02;;;;;;;10.70;3.33;;;18.50;99.90;;;;;;4958526;28;20510;-79
2023/10/20 09:26:34;;;;;;;8.63;3.13;;;18.70;99.90;;;;;;4962134;28;20210;-78
2023/10/20 09:29:05;;;;;;;12.82;3.63;;;18.80;99.90;;;;;;4943791;28;20058;-79
2023/10/20 09:31:35;;;;;;;8.55;3.25;;;18.90;99.90;;;;;;4920992;28;20055;-78
2023/10/20 09:34:06;;;;;;;10.38;3.03;;;19.00;99.90;;;;;;4938225;28;20979;-77
2023/10/20 09:36:36;;;;;;;13.02;3.25;;;19.20;99.90;;;;;;4934582;28;20852;-79
2023/10/20 09:39:08;;;;;;;10.48;3.03;;;19.30;99.90;;;;;;4959468;28;20050;-80
2023/10/20 09:41:42;;;;;;;13.20;2.92;;;19.30;99.90;;;;;;4956904;28;20078;-78
2023/10/20 09:44:19;;;;;;;13.25;3.83;;;19.40;99.90;;;;;;4925886;28;22278;-80
2023/10/20 09:47:04;;;;;;;11.70;2.45;;;19.50;99.90;;;;;;4945545;28;20046;-81
2023/10/20 09:49:35;;;;;;;10.82;2.58;;;19.60;99.90;;;;;;4952465;28;20050;-77
2023/10/20 09:52:05;;;;;;;11.82;2.92;;;19.80;99.90;;;;;;4918844;28;20050;-78
2023/10/20 09:54:33;;;;;;;8.07;2.03;;;19.80;99.90;;;;;;4956462;28;20077;-76
2023/10/20 09:57:01;;;;;;;10.90;2.63;;;19.80;99.90;;;;;;4980314;28;20513;-77
2023/10/20 09:59:30;;;;;;;11.43;2.95;;;19.80;99.90;;;;;;4959851;28;20061;-77
2023/10/20 10:02:01;;;;;;;6.78;2.15;;;19.90;99.90;;;;;;4953540;28;20070;-79
2023/10/20 10:04:33;;;;;;;12.27;2.80;;;20.00;99.90;;;;;;4953130;28;20050;-80
2023/10/20 10:07:04;;;;;;;12.85;3.30;;;20.20;99.90;;;;;;4943622;28;20047;-79
2023/10/20 10:09:37;;;;;;;6.07;2.37;;;20.20;99.80;;;;;;4926420;28;20050;-80
2023/10/20 10:12:09;;;;;;;10.60;2.80;;;20.30;99.40;;;;;;4926342;28;20304;-79
2023/10/20 10:14:36;;;;;;;13.23;2.78;;;20.40;99.60;;;;;;4953465;28;20056;-77
2023/10/20 10:17:11;;;;;;;10.38;3.08;;;20.40;99.60;;;;;;4953327;28;20054;-78
2023/10/20 10:19:52;;;;;;;8.55;3.08;;;20.50;99.30;;;;;;4927434;28;20062;-78
2023/10/20 10:22:28;;;;;;;11.30;2.60;;;20.70;99.30;;;;;;4952137;28;20190;-80
2023/10/20 10:24:59;;;;;;;7.63;2.45;;;20.70;98.30;;;;;;4937425;28;20052;-81
2023/10/20 10:27:29;;;;;;;16.50;2.95;;;20.80;98.30;;;;;;4941778;28;20808;-78
2023/10/20 10:30:09;;;;;;;11.57;3.40;;;21.00;97.20;;;;;;4944429;28;20069;-81
2023/10/20 10:32:48;;;;;;;9.35;2.63;;;21.00;96.60;;;;;;4944599;28;20051;-78
2023/10/20 10:35:16;;;;;;;11.05;2.97;;;21.10;97.00;;;;;;4930725;28;20121;-79
2023/10/20 10:37:45;;;;;;;7.18;2.60;;;21.00;96.80;;;;;;4946706;28;20061;-80
2023/10/20 10:40:22;;;;;;;14.93;3.03;;;21.10;97.20;;;;;;4931307;28;20124;-81
2023/10/20 10:42:50;;;;;;;8.23;2.92;;;21.20;96.20;;;;;;4945593;28;20050;-78
2023/10/20 10:45:36;;;;;;;12.02;3.55;;;21.10;96.40;;;;;;4926245;28;20046;-78
2023/10/20 10:48:09;;;;;;;9.73;3.20;;;21.10;95.90;;;;;;4930145;28;20145;-78
2023/10/20 10:50:38;;;;;;;9.55;2.28;;;21.20;96.40;;;;;;4970067;28;20129;-78
2023/10/20 10:53:05;;;;;;;8.73;2.60;;;21.10;96.30;;;;;;4944530;28;20832;-78
2023/10/20 10:55:37;;;;;;;10.25;2.65;;;21.30;95.50;;;;;;4930141;28;20097;-79
2023/10/20 10:58:05;;;;;;;;;;;21.40;95.40;;;;;;4956398;28;20292;-78
2023/10/20 11:00:33;;;;;;;11.45;2.92;;;21.40;95.40;;;;;;4960572;28;19984;-78
2023/10/20 11:03:01;;;;;;;11.18;2.78;;;21.50;95.20;;;;;;4946142;28;20512;-79
2023/10/20 11:05:29;;;;;;;8.88;2.92;;;21.60;95.10;;;;;;4946801;28;20046;-79
2023/10/20 11:08:04;;;;;;;14.27;3.22;;;21.60;95.00;;;;;;4931620;28;20046;-77
2023/10/20 11:10:37;;;;;;;8.30;2.92;;;21.80;94.10;;;;;;4944373;28;20341;-78
2023/10/20 11:13:13;;;;;;;9.95;2.88;;;21.90;94.20;;;;;;4952289;28;20070;-79
2023/10/20 11:15:40;;;;;;;6.85;2.65;;;21.90;94.10;;;;;;4937400;28;20096;-80
2023/10/20 11:18:10;;;;;;;16.73;2.38;;;22.00;92.80;;;;;;4953663;28;20193;-79
2023/10/20 11:20:41;;;;;;;17.38;3.08;;;22.00;93.30;;;;;;4943101;28;20096;-79
2023/10/20 11:23:09;;;;;;;8.07;2.35;;;22.20;91.90;;;;;;4939629;28;20069;-79
2023/10/20 11:25:36;;;;;;;10.52;2.53;;;22.30;91.50;;;;;;4938840;28;20050;-79
2023/10/20 11:28:05;;;;;;;13.73;2.13;;;22.50;91.50;;;;;;4939121;28;20195;-79
2023/10/20 11:30:41;;;;;;;8.80;2.13;;;22.70;90.80;;;;;;4959029;28;20054;-79
2023/10/20 11:33:10;;;;;;;13.88;2.53;;;23.00;90.40;;;;;;4941173;28;20050;-80
2023/10/20 11:35:42;;;;;;;13.93;2.53;;;23.30;89.20;;;;;;4945674;28;20042;-80
2023/10/20 11:38:12;;;;;;;10.38;2.03;;;23.40;89.00;;;;;;4947117;28;20042;-79
2023/10/20 11:40:41;;;;;;;10.52;2.05;;;23.30;88.40;;;;;;4980011;28;21225;-79
2023/10/20 11:43:08;;;;;;;14.00;1.92;;;23.30;85.60;;;;;;4962793;28;20412;-79
2023/10/20 11:45:36;;;;;;;21.23;3.10;;;23.20;86.40;;;;;;4953522;28;20717;-81
2023/10/20 11:48:03;;;;;;;8.40;2.90;;;23.20;85.60;;;;;;4961522;28;20323;-78
2023/10/20 11:50:31;;;;;;;15.25;2.40;;;23.20;84.80;;;;;;4959371;28;20054;-80
2023/10/20 11:52:58;;;;;;;11.38;2.92;;;23.10;85.60;;;;;;4976094;28;20038;-80
2023/10/20 11:55:25;;;;;;;11.25;2.22;;;22.90;87.40;;;;;;4939167;28;20100;-77
2023/10/20 11:57:53;;;;;;;13.25;2.17;;;22.90;87.30;;;;;;4940473;28;22576;-80
2023/10/20 12:00:21;;;;;;;6.82;2.00;;;22.80;88.00;;;;;;4962625;28;20050;-78
2023/10/20 12:02:49;;;;;;;9.55;2.17;;;22.90;87.60;;;;;;4962269;28;20064;-79
2023/10/20 12:05:16;;;;;;;7.65;1.70;;;22.80;88.50;;;;;;4954161;28;20133;-79
2023/10/20 12:07:45;;;;;;;8.90;1.77;;;22.90;87.30;;;;;;4950907;28;20043;-79
2023/10/20 12:10:15;;;;;;;12.02;2.50;;;23.10;86.00;;;;;;4939342;28;20801;-78
2023/10/20 12:12:42;;;;;;;8.98;2.22;;;23.20;85.50;;;;;;4945034;28;20057;-78
2023/10/20 12:15:09;;;;;;;16.73;2.75;;;23.10;86.00;;;;;;4948963;28;20124;-80
2023/10/20 12:17:39;;;;;;;11.07;2.20;;;23.10;86.00;;;;;;4972399;28;20057;-80
2023/10/20 12:20:08;;;;;;;9.50;2.33;;;23.00;86.70;;;;;;4951186;28;20545;-78
2023/10/20 12:22:36;;;;;;;10.07;1.85;;;22.90;87.00;;;;;;4953383;28;20383;-83
2023/10/20 12:25:03;;;;;;;12.68;2.40;;;22.90;86.90;;;;;;4943397;28;20097;-79
2023/10/20 12:27:31;;;;;;;10.35;1.98;;;22.90;87.20;;;;;;4957714;28;20203;-78
2023/10/20 12:29:58;;;;;;;9.88;2.45;;;22.90;87.20;;;;;;4971820;28;20054;-79
2023/10/20 12:32:27;;;;;;;10.07;2.33;;;22.90;87.30;;;;;;4943904;28;20069;-77
2023/10/20 12:34:54;;;;;;;13.35;2.58;;;22.80;88.20;;;;;;4944981;28;20060;-80
2023/10/20 12:37:21;;;;;;;16.60;2.95;;;22.80;87.70;;;;;;4986977;28;20490;-78
2023/10/20 12:39:49;;;;;;;14.13;2.80;;;22.90;87.30;;;;;;4950589;28;20050;-78
2023/10/20 12:42:16;;;;;;;12.45;2.42;;;23.00;87.10;;;;;;4953970;28;20426;-78
2023/10/20 12:44:43;;;;;;;7.75;1.75;;;22.90;87.00;;;;;;4950512;28;20046;-82
2023/10/20 12:47:11;;;;;;;11.75;2.63;;;22.80;87.40;;;;;;4957476;28;20057;-79
2023/10/20 12:49:38;;;;;;;12.40;2.88;;;22.90;86.80;;;;;;4950393;28;20188;-79
2023/10/20 12:52:08;;;;;;;12.07;2.65;;;22.80;86.70;;;;;;4944108;28;20417;-80
2023/10/20 12:54:35;;;;;;;15.43;2.40;;;22.80;86.90;;;;;;4943255;28;20054;-79
2023/10/20 12:57:03;;;;;;;12.20;2.88;;;22.80;87.30;;;;;;4928537;28;20097;-78
2023/10/20 12:59:30;;;;;;;11.30;2.95;;;22.70;86.70;;;;;;4939231;28;20625;-81
2023/10/20 13:01:59;;;;;;;9.65;2.20;;;22.80;87.10;;;;;;4930507;28;20054;-83
2023/10/20 13:04:27;;;;;;;11.25;2.88;;;22.70;87.20;;;;;;4944058;28;20183;-78
2023/10/20 13:06:55;;;;;;;14.77;3.28;;;22.80;86.70;;;;;;4953098;28;20659;-80
2023/10/20 13:09:27;;;;;;;12.10;2.10;;;22.70;86.50;;;;;;4960072;28;20066;-81
2023/10/20 13:11:58;;;;;;;9.65;2.20;;;22.70;86.90;;;;;;4945022;28;20058;-80
2023/10/20 13:14:26;;;;;;;12.05;2.75;;;22.70;87.00;;;;;;4954885;28;20054;-80
2023/10/20 13:16:53;;;;;;;13.80;2.75;;;22.70;87.10;;;;;;4938289;28;20516;-78
2023/10/20 13:19:21;;;;;;;10.90;2.75;;;22.60;86.80;;;;;;4942875;28;20578;-80
2023/10/20 13:21:48;;;;;;;8.88;1.92;;;22.70;86.80;;;;;;4937277;28;20823;-79